Grays Harbor City, Washington
Current Conditions -  °F | °C
As of 1:53 AM on Monday 22 Dec 2014 (Local Time) from KHQM Reporting Station
Haze Haze  
Wind Chill: 51°   Ceiling: Unl
Heat Index: 51°   Visibility: 5mi
Dew Point: 48°   Wind: 9mph
Humidity: 89%   Direction: 270°W
Pressure: 30.18"   Gusts: NA
Location:  47.0202°N, 123.878°W
Report Text: KHQM 220953Z AUTO 27008KT 5SM BR SCT029 11/09 A3018 RMK AO2 SLP222 T01060089
Loading
Personal Weather Stations






























Interactive Weather Map New forecast layout! Learn more

10-Day Weather Forecast

Advertisements
Track Severe Weather on mobile